Time;durP1;ratioP1;P1;durP2;ratioP2;P2;SDS_P1;SDS_P2;PMS_P1;PMS_P2;Temp;Humidity;BMP_temperature;BMP_pressure;BME280_temperature;BME280_humidity;BME280_pressure;Samples;Min_cycle;Max_cycle;Signal;HPM_P1;HPM_P2
2022/07/12 00:01:05;;;;;;;423.07;200.80;;;;;;;;;;4988128;28;20229;-48
2022/07/12 00:03:31;;;;;;;375.27;180.63;;;;;;;;;;4985599;28;20200;-49
2022/07/12 00:05:57;;;;;;;399.03;191.90;;;;;;;;;;4987447;28;20193;-49
2022/07/12 00:08:23;;;;;;;424.07;206.20;;;;;;;;;;4992581;28;20270;-49
2022/07/12 00:10:50;;;;;;;383.57;187.63;;;;;;;;;;4983908;28;20283;-49
2022/07/12 00:13:16;;;;;;;416.73;199.77;;;;;;;;;;4987827;28;20577;-50
2022/07/12 00:15:42;;;;;;;400.13;189.57;;;;;;;;;;4990440;28;20224;-49
2022/07/12 00:18:09;;;;;;;354.17;173.13;;;;;;;;;;4989720;28;20190;-48
2022/07/12 00:20:35;;;;;;;348.03;172.10;;;;;;;;;;4987288;28;20230;-48
2022/07/12 00:23:01;;;;;;;413.60;198.33;;;;;;;;;;4988722;28;20244;-49
2022/07/12 00:25:27;;;;;;;395.30;186.97;;;;;;;;;;4990073;28;20228;-49
2022/07/12 00:27:53;;;;;;;366.57;177.30;;;;;;;;;;4991094;28;20237;-49
2022/07/12 00:30:19;;;;;;;409.63;192.20;;;;;;;;;;4989760;28;20197;-49
2022/07/12 00:32:47;;;;;;;386.30;185.87;;;;;;;;;;4989153;28;20204;-49
2022/07/12 00:35:13;;;;;;;342.50;166.70;;;;;;;;;;4991271;28;20221;-49
2022/07/12 00:37:39;;;;;;;391.83;189.57;;;;;;;;;;4991431;28;20232;-49
2022/07/12 00:40:06;;;;;;;425.87;198.90;;;;;;;;;;4989691;28;20286;-48
2022/07/12 00:42:32;;;;;;;381.63;182.50;;;;;;;;;;4991425;28;20611;-48
2022/07/12 00:44:58;;;;;;;403.37;192.50;;;;;;;;;;4987201;28;21454;-49
2022/07/12 00:47:27;;;;;;;402.93;191.20;;;;;;;;;;4989250;28;20618;-49
2022/07/12 00:49:53;;;;;;;364.27;174.57;;;;;;;;;;4990556;28;20739;-48
2022/07/12 00:52:19;;;;;;;418.23;197.37;;;;;;;;;;4992655;28;20225;-49
2022/07/12 00:54:45;;;;;;;376.07;177.37;;;;;;;;;;4995159;28;20243;-49
2022/07/12 00:57:11;;;;;;;383.40;181.40;;;;;;;;;;4990780;28;20201;-49
2022/07/12 00:59:37;;;;;;;326.47;158.63;;;;;;;;;;4999654;28;20247;-49
2022/07/12 01:02:03;;;;;;;364.43;179.73;;;;;;;;;;4993110;28;20706;-48
2022/07/12 01:04:29;;;;;;;363.20;174.13;;;;;;;;;;4992449;28;20296;-49
2022/07/12 01:06:55;;;;;;;416.93;200.33;;;;;;;;;;4995055;28;20223;-49
2022/07/12 01:09:21;;;;;;;405.40;190.27;;;;;;;;;;4991753;28;20186;-50
2022/07/12 01:11:47;;;;;;;350.23;171.07;;;;;;;;;;4997875;28;20188;-48
2022/07/12 01:14:13;;;;;;;383.03;180.80;;;;;;;;;;4988218;28;20217;-48
2022/07/12 01:16:39;;;;;;;406.13;192.13;;;;;;;;;;4985362;28;20636;-49
2022/07/12 01:19:06;;;;;;;375.30;182.87;;;;;;;;;;4994371;28;20212;-49
2022/07/12 01:21:34;;;;;;;443.27;206.43;;;;;;;;;;4988053;28;20217;-49
2022/07/12 01:24:01;;;;;;;329.53;159.23;;;;;;;;;;4999971;28;20189;-50
2022/07/12 01:26:27;;;;;;;363.47;170.67;;;;;;;;;;4991869;28;20229;-49
2022/07/12 01:28:54;;;;;;;414.20;192.10;;;;;;;;;;4991945;28;20220;-49
2022/07/12 01:31:19;;;;;;;405.93;189.13;;;;;;;;;;4993724;28;20221;-49
2022/07/12 01:33:45;;;;;;;386.50;182.00;;;;;;;;;;4992775;28;20274;-49
2022/07/12 01:36:12;;;;;;;383.23;180.57;;;;;;;;;;4989778;28;20204;-49
2022/07/12 01:38:38;;;;;;;373.70;176.70;;;;;;;;;;4990846;28;20460;-49
2022/07/12 01:41:04;;;;;;;352.03;168.83;;;;;;;;;;4989414;28;20221;-49
2022/07/12 01:43:30;;;;;;;392.70;185.00;;;;;;;;;;4989887;28;20244;-49
2022/07/12 01:45:56;;;;;;;379.93;179.23;;;;;;;;;;4989968;28;20221;-49
2022/07/12 01:48:22;;;;;;;371.03;172.70;;;;;;;;;;4988861;28;20181;-48
2022/07/12 01:50:48;;;;;;;357.93;169.50;;;;;;;;;;4993568;28;20674;-49
2022/07/12 01:53:14;;;;;;;353.63;164.93;;;;;;;;;;4991904;28;20240;-49
2022/07/12 01:55:40;;;;;;;405.73;184.80;;;;;;;;;;4991276;28;20212;-49
2022/07/12 01:58:07;;;;;;;360.03;171.60;;;;;;;;;;4997027;28;20208;-49
2022/07/12 02:00:33;;;;;;;349.43;167.00;;;;;;;;;;4995305;28;20205;-49
2022/07/12 02:02:59;;;;;;;365.97;172.70;;;;;;;;;;5000345;28;20228;-48
2022/07/12 02:05:25;;;;;;;371.80;176.80;;;;;;;;;;4993814;28;20249;-49
2022/07/12 02:07:51;;;;;;;406.97;188.87;;;;;;;;;;4987167;28;20320;-49
2022/07/12 02:10:17;;;;;;;406.17;186.20;;;;;;;;;;4985126;28;20216;-49
2022/07/12 02:12:43;;;;;;;366.23;171.53;;;;;;;;;;4993946;28;20784;-49
2022/07/12 02:15:10;;;;;;;392.60;183.20;;;;;;;;;;4986167;28;20195;-48
2022/07/12 02:17:36;;;;;;;404.47;185.73;;;;;;;;;;4981242;28;20232;-49
2022/07/12 02:20:02;;;;;;;348.67;166.30;;;;;;;;;;4988110;28;20229;-49
2022/07/12 02:22:28;;;;;;;424.07;195.00;;;;;;;;;;4987617;28;20608;-49
2022/07/12 02:24:55;;;;;;;352.97;167.57;;;;;;;;;;4993883;28;20218;-49
2022/07/12 02:27:21;;;;;;;354.47;166.83;;;;;;;;;;4992552;28;20216;-49
2022/07/12 02:29:46;;;;;;;325.73;154.13;;;;;;;;;;4989875;28;20193;-49
2022/07/12 02:32:13;;;;;;;425.77;193.83;;;;;;;;;;4991338;28;20216;-49
2022/07/12 02:34:39;;;;;;;425.07;195.57;;;;;;;;;;4991769;28;20480;-48
2022/07/12 02:37:05;;;;;;;369.43;174.13;;;;;;;;;;4992154;28;20565;-49
2022/07/12 02:39:31;;;;;;;387.10;182.43;;;;;;;;;;4993321;28;20288;-49
2022/07/12 02:41:57;;;;;;;369.70;175.37;;;;;;;;;;4994338;28;20186;-48
2022/07/12 02:44:23;;;;;;;428.50;196.43;;;;;;;;;;4992188;28;20209;-48
2022/07/12 02:46:49;;;;;;;367.97;175.17;;;;;;;;;;5005297;28;20702;-49
2022/07/12 02:49:15;;;;;;;425.83;198.23;;;;;;;;;;4987937;28;20311;-48
2022/07/12 02:51:41;;;;;;;378.10;178.27;;;;;;;;;;4989596;28;20296;-49
2022/07/12 02:54:07;;;;;;;378.10;182.10;;;;;;;;;;4987590;28;20185;-48
2022/07/12 02:56:33;;;;;;;362.87;171.30;;;;;;;;;;4984817;28;20227;-49
2022/07/12 02:58:58;;;;;;;346.80;166.30;;;;;;;;;;4989502;28;20213;-49
2022/07/12 03:01:24;;;;;;;353.50;166.47;;;;;;;;;;4994789;28;20255;-48
2022/07/12 03:03:50;;;;;;;355.43;168.80;;;;;;;;;;4994320;28;20740;-48
2022/07/12 03:06:16;;;;;;;370.30;178.30;;;;;;;;;;4991926;28;20227;-49
2022/07/12 03:08:43;;;;;;;409.60;193.63;;;;;;;;;;4988663;28;20209;-48
2022/07/12 03:11:09;;;;;;;348.43;168.13;;;;;;;;;;4991704;28;20222;-49
2022/07/12 03:13:35;;;;;;;428.60;195.20;;;;;;;;;;4983581;28;20223;-49
2022/07/12 03:16:01;;;;;;;406.50;191.83;;;;;;;;;;4987757;28;20577;-49
2022/07/12 03:18:27;;;;;;;401.07;184.37;;;;;;;;;;4987887;28;20193;-48
2022/07/12 03:20:53;;;;;;;394.17;184.27;;;;;;;;;;4994308;28;20236;-49
2022/07/12 03:23:19;;;;;;;341.37;164.07;;;;;;;;;;4986500;28;20249;-49
2022/07/12 03:25:45;;;;;;;438.13;200.13;;;;;;;;;;4986452;28;20259;-49
2022/07/12 03:28:11;;;;;;;380.83;179.27;;;;;;;;;;4985548;28;20505;-49
2022/07/12 03:30:37;;;;;;;390.63;186.03;;;;;;;;;;5000513;28;20284;-49
2022/07/12 03:33:03;;;;;;;373.90;177.37;;;;;;;;;;4991924;28;20200;-48
2022/07/12 03:35:29;;;;;;;399.13;187.50;;;;;;;;;;4987048;28;20270;-48
2022/07/12 03:37:55;;;;;;;386.33;184.77;;;;;;;;;;4984115;28;20319;-49
2022/07/12 03:40:22;;;;;;;364.37;175.67;;;;;;;;;;4991266;28;20315;-49
2022/07/12 03:42:48;;;;;;;339.57;165.23;;;;;;;;;;4987672;28;20217;-49
2022/07/12 03:45:15;;;;;;;389.37;183.20;;;;;;;;;;4989730;28;20181;-49
2022/07/12 03:47:41;;;;;;;417.50;200.17;;;;;;;;;;4989199;28;20243;-49
2022/07/12 03:50:08;;;;;;;376.73;182.30;;;;;;;;;;4990647;28;20283;-49
2022/07/12 03:52:35;;;;;;;382.40;186.30;;;;;;;;;;4987688;28;20524;-49
2022/07/12 03:55:04;;;;;;;354.80;169.77;;;;;;;;;;5000674;28;20233;-48
2022/07/12 03:57:30;;;;;;;387.80;184.20;;;;;;;;;;4987742;28;20220;-48
2022/07/12 03:59:57;;;;;;;347.97;171.43;;;;;;;;;;4989989;28;20221;-49
2022/07/12 04:02:22;;;;;;;370.43;175.90;;;;;;;;;;4994410;28;20594;-49
2022/07/12 04:04:49;;;;;;;355.47;171.60;;;;;;;;;;4993013;28;20217;-49
2022/07/12 04:07:15;;;;;;;350.53;168.03;;;;;;;;;;4992340;28;20724;-49
2022/07/12 04:09:41;;;;;;;347.63;168.17;;;;;;;;;;4993538;28;20239;-49
2022/07/12 04:12:07;;;;;;;379.93;179.53;;;;;;;;;;4996675;28;20272;-48
2022/07/12 04:14:33;;;;;;;351.80;168.30;;;;;;;;;;4997648;28;20220;-49
2022/07/12 04:16:59;;;;;;;422.13;196.27;;;;;;;;;;4989365;28;20316;-49
2022/07/12 04:19:27;;;;;;;370.80;173.00;;;;;;;;;;4993328;28;20281;-49
2022/07/12 04:21:55;;;;;;;322.80;155.43;;;;;;;;;;4988482;28;23517;-49
2022/07/12 04:24:21;;;;;;;418.77;192.37;;;;;;;;;;4985722;28;20537;-49
2022/07/12 04:26:47;;;;;;;385.20;182.93;;;;;;;;;;4991364;28;20211;-49
2022/07/12 04:29:13;;;;;;;385.93;184.23;;;;;;;;;;4996455;28;20690;-48
2022/07/12 04:31:39;;;;;;;344.93;172.00;;;;;;;;;;4991056;28;20260;-49
2022/07/12 04:34:04;;;;;;;371.03;181.93;;;;;;;;;;4993666;28;20217;-49
2022/07/12 04:36:31;;;;;;;435.13;208.47;;;;;;;;;;4987911;28;20205;-48
2022/07/12 04:38:56;;;;;;;348.80;173.57;;;;;;;;;;4989884;28;20181;-49
2022/07/12 04:41:22;;;;;;;364.77;179.43;;;;;;;;;;4995032;28;20372;-49
2022/07/12 04:43:48;;;;;;;377.93;183.43;;;;;;;;;;4993246;28;20294;-49
2022/07/12 04:46:14;;;;;;;399.33;192.10;;;;;;;;;;4994658;28;20480;-49
2022/07/12 04:48:40;;;;;;;430.13;208.43;;;;;;;;;;4982563;28;20220;-49
2022/07/12 04:51:06;;;;;;;383.77;188.47;;;;;;;;;;4987482;28;20185;-49
2022/07/12 04:53:32;;;;;;;347.83;174.87;;;;;;;;;;4990637;28;20573;-49
2022/07/12 04:55:58;;;;;;;371.00;182.13;;;;;;;;;;4992065;28;20216;-48
2022/07/12 04:58:24;;;;;;;454.03;216.07;;;;;;;;;;4988038;28;20232;-48
2022/07/12 05:00:50;;;;;;;388.63;191.90;;;;;;;;;;4989421;28;20702;-49
2022/07/12 05:03:16;;;;;;;426.23;206.40;;;;;;;;;;4992598;28;20185;-49
2022/07/12 05:05:42;;;;;;;388.27;185.00;;;;;;;;;;4990642;28;20221;-49
2022/07/12 05:08:08;;;;;;;344.00;170.60;;;;;;;;;;4996734;28;20892;-49
2022/07/12 05:10:34;;;;;;;433.37;205.57;;;;;;;;;;4991235;28;20580;-49
2022/07/12 05:13:01;;;;;;;386.20;189.90;;;;;;;;;;4995987;28;20244;-49
2022/07/12 05:15:27;;;;;;;389.60;189.20;;;;;;;;;;4991662;28;20616;-49
2022/07/12 05:17:53;;;;;;;393.40;194.40;;;;;;;;;;4989343;28;21087;-48
2022/07/12 05:20:19;;;;;;;392.50;194.97;;;;;;;;;;4985814;28;20229;-49
2022/07/12 05:22:45;;;;;;;441.60;215.20;;;;;;;;;;4991099;28;20300;-48
2022/07/12 05:25:11;;;;;;;394.73;196.00;;;;;;;;;;4987740;28;20224;-48
2022/07/12 05:27:37;;;;;;;386.07;191.47;;;;;;;;;;4988661;28;20224;-49
2022/07/12 05:30:04;;;;;;;381.43;184.47;;;;;;;;;;4987247;28;20324;-49
2022/07/12 05:32:30;;;;;;;357.43;180.27;;;;;;;;;;4989728;28;20268;-50
2022/07/12 05:34:55;;;;;;;386.73;187.20;;;;;;;;;;4995713;28;20241;-49
2022/07/12 05:37:24;;;;;;;385.70;188.93;;;;;;;;;;4995607;28;20228;-50
2022/07/12 05:39:50;;;;;;;394.77;190.90;;;;;;;;;;4993759;28;20229;-49
2022/07/12 05:42:16;;;;;;;386.63;185.57;;;;;;;;;;4990878;28;20563;-51
2022/07/12 05:44:42;;;;;;;355.70;179.10;;;;;;;;;;4991924;28;20246;-51
2022/07/12 05:47:08;;;;;;;403.17;196.40;;;;;;;;;;4995445;28;20220;-51
2022/07/12 05:49:34;;;;;;;363.20;180.52;;;;;;;;;;4996716;28;20231;-51
2022/07/12 05:54:45;;;;;;;392.83;191.97;;;;;;;;;;4971269;28;20485;-52
2022/07/12 05:57:11;;;;;;;385.20;188.13;;;;;;;;;;4988572;28;20205;-51
2022/07/12 05:59:37;;;;;;;389.90;192.10;;;;;;;;;;4995402;28;20252;-51
2022/07/12 06:02:03;;;;;;;398.37;188.50;;;;;;;;;;4994545;28;20612;-51
2022/07/12 06:04:29;;;;;;;382.05;183.05;;;;;;;;;;4986224;28;20626;-52
2022/07/12 06:06:56;;;;;;;452.23;217.50;;;;;;;;;;4982834;28;20263;-52
2022/07/12 06:09:22;;;;;;;358.27;178.63;;;;;;;;;;4993471;28;20205;-52
2022/07/12 06:11:48;;;;;;;410.80;199.85;;;;;;;;;;4984729;28;20620;-51
2022/07/12 06:14:14;;;;;;;482.13;217.50;;;;;;;;;;4976497;28;20221;-51
2022/07/12 06:16:40;;;;;;;425.83;213.33;;;;;;;;;;4977706;28;20295;-51
2022/07/12 06:19:06;;;;;;;423.50;208.93;;;;;;;;;;4981896;28;20682;-51
2022/07/12 06:21:32;;;;;;;440.15;203.05;;;;;;;;;;4985506;28;20223;-51
2022/07/12 06:23:58;;;;;;;403.63;186.68;;;;;;;;;;4980393;28;20185;-51
2022/07/12 06:26:24;;;;;;;397.83;200.43;;;;;;;;;;4988572;28;20311;-51
2022/07/12 06:28:50;;;;;;;429.08;199.43;;;;;;;;;;4988237;28;22130;-51
2022/07/12 06:31:16;;;;;;;422.73;196.82;;;;;;;;;;4985365;28;20216;-51
2022/07/12 06:33:42;;;;;;;381.88;186.38;;;;;;;;;;4985035;28;20224;-52
2022/07/12 06:36:08;;;;;;;382.00;188.95;;;;;;;;;;4987615;28;20205;-51
2022/07/12 06:38:34;;;;;;;414.47;203.97;;;;;;;;;;4983894;28;20236;-51
2022/07/12 06:41:00;;;;;;;402.13;188.15;;;;;;;;;;4983189;28;20718;-51
2022/07/12 06:43:26;;;;;;;399.50;189.82;;;;;;;;;;4986594;28;20232;-51
2022/07/12 06:45:53;;;;;;;441.15;199.43;;;;;;;;;;4970387;28;20300;-51
2022/07/12 06:48:18;;;;;;;377.27;177.43;;;;;;;;;;4991024;28;20176;-51
2022/07/12 06:50:44;;;;;;;393.83;185.97;;;;;;;;;;4993132;28;20290;-50
2022/07/12 06:53:14;;;;;;;493.87;219.63;;;;;;;;;;4982601;28;20225;-51
2022/07/12 06:55:40;;;;;;;435.08;203.82;;;;;;;;;;4979865;28;20717;-50
2022/07/12 06:58:06;;;;;;;368.63;191.27;;;;;;;;;;4982901;28;20221;-52
2022/07/12 07:00:32;;;;;;;442.75;204.80;;;;;;;;;;4981730;28;20503;-51
2022/07/12 07:02:58;;;;;;;425.58;200.70;;;;;;;;;;4986021;28;20211;-52
2022/07/12 07:05:24;;;;;;;597.05;255.82;;;;;;;;;;4981486;28;20247;-51
2022/07/12 07:07:50;;;;;;;396.02;196.70;;;;;;;;;;4990298;28;20276;-51
2022/07/12 07:10:16;;;;;;;470.52;215.88;;;;;;;;;;4978531;28;20214;-51
2022/07/12 07:12:42;;;;;;;387.55;188.60;;;;;;;;;;4985748;28;20235;-51
2022/07/12 07:15:08;;;;;;;415.90;200.55;;;;;;;;;;4987345;28;20193;-51
2022/07/12 07:17:34;;;;;;;415.75;211.00;;;;;;;;;;4988373;28;20224;-51
2022/07/12 07:20:00;;;;;;;366.75;186.15;;;;;;;;;;4993861;28;20221;-51
2022/07/12 07:22:27;;;;;;;431.85;204.50;;;;;;;;;;4981811;28;20235;-51
2022/07/12 07:24:53;;;;;;;430.70;214.70;;;;;;;;;;4976695;28;20217;-51
2022/07/12 07:27:19;;;;;;;473.25;237.00;;;;;;;;;;4979846;28;20203;-51
2022/07/12 07:32:29;;;;;;;523.65;248.60;;;;;;;;;;4977499;28;20426;-51
2022/07/12 07:34:55;;;;;;;457.83;227.07;;;;;;;;;;4991026;28;20658;-51
2022/07/12 07:37:23;;;;;;;432.92;220.95;;;;;;;;;;4976268;28;20497;-51
2022/07/12 07:39:49;;;;;;;377.48;196.75;;;;;;;;;;4992618;28;20316;-51
2022/07/12 07:42:15;;;;;;;403.93;211.73;;;;;;;;;;4980356;28;20703;-51
2022/07/12 07:44:41;;;;;;;424.42;219.40;;;;;;;;;;4996315;28;20212;-51
2022/07/12 07:47:06;;;;;;;397.08;213.27;;;;;;;;;;4982697;28;20237;-51
2022/07/12 07:49:33;;;;;;;390.02;207.70;;;;;;;;;;4991574;28;20213;-51
2022/07/12 07:51:58;;;;;;;435.58;226.15;;;;;;;;;;4982044;28;20217;-51
2022/07/12 07:54:25;;;;;;;524.33;254.77;;;;;;;;;;4972128;28;20199;-51
2022/07/12 07:56:51;;;;;;;363.65;199.55;;;;;;;;;;4986396;28;20666;-52
2022/07/12 07:59:17;;;;;;;390.08;210.07;;;;;;;;;;4999209;28;20212;-51
2022/07/12 08:01:44;;;;;;;412.70;213.75;;;;;;;;;;4994352;28;20244;-51
2022/07/12 08:04:13;;;;;;;356.98;190.07;;;;;;;;;;4993870;28;20311;-51
2022/07/12 08:06:39;;;;;;;481.08;253.00;;;;;;;;;;4989633;28;20490;-51
2022/07/12 08:09:06;;;;;;;390.35;209.07;;;;;;;;;;4992592;28;20542;-51
2022/07/12 08:11:32;;;;;;;480.85;240.15;;;;;;;;;;4992902;28;20221;-51
2022/07/12 08:13:58;;;;;;;375.48;203.93;;;;;;;;;;4991207;28;20221;-51
2022/07/12 08:16:24;;;;;;;399.35;218.00;;;;;;;;;;4989607;28;20247;-51
2022/07/12 08:18:50;;;;;;;395.52;218.13;;;;;;;;;;4988123;28;20217;-51
2022/07/12 08:21:16;;;;;;;553.17;271.92;;;;;;;;;;4981656;28;20649;-51
2022/07/12 08:23:41;;;;;;;454.15;239.35;;;;;;;;;;4986202;28;20722;-51
2022/07/12 08:26:07;;;;;;;445.80;241.93;;;;;;;;;;4978320;28;20931;-51
2022/07/12 08:28:33;;;;;;;423.15;229.52;;;;;;;;;;4988091;28;20221;-52
2022/07/12 08:30:59;;;;;;;471.70;238.32;;;;;;;;;;4982918;28;20225;-52
2022/07/12 08:33:25;;;;;;;456.73;229.48;;;;;;;;;;4985685;28;20603;-51
2022/07/12 08:35:51;;;;;;;486.08;233.82;;;;;;;;;;4985892;28;20189;-51
2022/07/12 08:38:17;;;;;;;453.80;226.85;;;;;;;;;;4980021;28;20895;-51
2022/07/12 08:40:43;;;;;;;411.75;223.52;;;;;;;;;;4987947;28;20224;-52
2022/07/12 08:43:09;;;;;;;417.38;219.70;;;;;;;;;;4981591;28;20232;-51
2022/07/12 08:45:35;;;;;;;503.13;251.23;;;;;;;;;;4976315;28;20253;-51
2022/07/12 08:48:01;;;;;;;439.33;240.02;;;;;;;;;;4986996;28;20207;-51
2022/07/12 08:50:28;;;;;;;478.90;261.10;;;;;;;;;;4985917;28;20532;-51
2022/07/12 08:52:55;;;;;;;444.17;242.52;;;;;;;;;;4982641;28;20222;-51
2022/07/12 08:55:25;;;;;;;458.98;234.13;;;;;;;;;;4992714;28;20597;-51
2022/07/12 08:57:52;;;;;;;402.05;216.05;;;;;;;;;;4987371;28;20316;-51
2022/07/12 09:00:19;;;;;;;389.83;211.20;;;;;;;;;;4991937;28;20197;-51
2022/07/12 09:02:48;;;;;;;455.98;244.07;;;;;;;;;;4988482;28;20272;-51
2022/07/12 09:05:14;;;;;;;384.85;213.85;;;;;;;;;;4988772;28;20232;-51
2022/07/12 09:07:40;;;;;;;393.67;223.23;;;;;;;;;;4997976;28;20245;-51
2022/07/12 09:10:07;;;;;;;391.25;222.23;;;;;;;;;;4992917;28;20272;-51
2022/07/12 09:12:34;;;;;;;388.65;226.68;;;;;;;;;;4996482;28;20180;-50
2022/07/12 09:15:19;;;;;;;367.33;219.57;;;;;;;;;;4992539;28;20174;-51
2022/07/12 09:17:46;;;;;;;460.80;258.65;;;;;;;;;;4989412;28;20684;-51
2022/07/12 09:20:13;;;;;;;366.63;215.55;;;;;;;;;;5000899;28;20225;-51
2022/07/12 09:22:43;;;;;;;383.80;220.23;;;;;;;;;;4996931;28;20209;-51
2022/07/12 09:25:16;;;;;;;448.00;251.50;;;;;;;;;;4991484;28;20466;-51
2022/07/12 09:27:47;;;;;;;401.67;237.35;;;;;;;;;;4992116;28;20585;-51
2022/07/12 09:30:13;;;;;;;402.83;234.15;;;;;;;;;;4991481;28;20197;-51
2022/07/12 09:38:18;;;;;;;398.38;218.80;;;;;;;;;;4995881;28;20235;-51
2022/07/12 09:40:44;;;;;;;379.50;215.13;;;;;;;;;;4993517;28;20654;-51
2022/07/12 09:43:11;;;;;;;415.08;234.05;;;;;;;;;;4997286;28;20690;-51
2022/07/12 09:45:37;;;;;;;413.38;241.63;;;;;;;;;;4995862;28;20185;-51
2022/07/12 09:48:04;;;;;;;359.52;216.80;;;;;;;;;;4994273;28;20232;-51
2022/07/12 09:50:30;;;;;;;375.27;225.13;;;;;;;;;;4990240;28;20212;-51
2022/07/12 09:52:58;;;;;;;408.05;227.05;;;;;;;;;;4996662;28;20276;-51
2022/07/12 09:55:25;;;;;;;430.95;247.68;;;;;;;;;;4993423;28;20295;-51
2022/07/12 09:57:56;;;;;;;410.45;239.25;;;;;;;;;;4992199;28;20246;-51
2022/07/12 10:00:23;;;;;;;395.73;226.32;;;;;;;;;;4996185;28;20213;-50
2022/07/12 10:02:50;;;;;;;466.00;263.33;;;;;;;;;;4993671;28;20634;-51
2022/07/12 10:05:16;;;;;;;413.25;246.40;;;;;;;;;;4996405;28;20741;-52
2022/07/12 10:07:42;;;;;;;437.63;252.40;;;;;;;;;;4992617;28;20328;-51
2022/07/12 10:10:09;;;;;;;407.33;249.52;;;;;;;;;;4991143;28;20229;-51
2022/07/12 10:12:35;;;;;;;429.02;252.95;;;;;;;;;;4996872;28;20173;-51
2022/07/12 10:15:03;;;;;;;455.40;270.63;;;;;;;;;;4995480;28;20630;-51
2022/07/12 10:17:29;;;;;;;398.08;228.80;;;;;;;;;;4975835;28;20573;-52
2022/07/12 10:20:14;;;;;;;485.42;266.23;;;;;;;;;;4978985;28;20312;-51
2022/07/12 10:22:40;;;;;;;450.20;255.95;;;;;;;;;;4979880;28;20212;-50
2022/07/12 10:25:26;;;;;;;455.85;253.75;;;;;;;;;;4977255;28;20221;-50
2022/07/12 10:27:52;;;;;;;427.52;228.85;;;;;;;;;;4985750;28;20225;-51
2022/07/12 10:30:19;;;;;;;404.75;227.13;;;;;;;;;;4985240;28;20871;-51
2022/07/12 10:32:46;;;;;;;504.40;249.60;;;;;;;;;;4979112;28;20661;-51
2022/07/12 10:35:13;;;;;;;478.50;250.88;;;;;;;;;;4975951;28;20232;-51
2022/07/12 10:37:40;;;;;;;438.88;255.52;;;;;;;;;;4983298;28;20217;-51
2022/07/12 10:40:18;;;;;;;403.50;247.40;;;;;;;;;;4993636;28;20217;-51
2022/07/12 10:43:03;;;;;;;422.73;251.98;;;;;;;;;;4984804;28;20216;-51
2022/07/12 10:45:34;;;;;;;420.90;248.23;;;;;;;;;;4981635;28;20192;-51
2022/07/12 10:48:04;;;;;;;519.10;296.65;;;;;;;;;;4986121;28;20248;-51
2022/07/12 10:50:45;;;;;;;399.95;234.55;;;;;;;;;;4988767;28;20212;-51
2022/07/12 10:53:23;;;;;;;494.45;263.88;;;;;;;;;;4985152;28;20331;-51
2022/07/12 10:56:04;;;;;;;430.42;248.50;;;;;;;;;;4986340;28;20311;-51
2022/07/12 10:58:31;;;;;;;431.48;253.98;;;;;;;;;;4984094;28;20621;-51
2022/07/12 11:00:58;;;;;;;392.83;229.20;;;;;;;;;;4991473;28;20823;-51
2022/07/12 11:03:24;;;;;;;466.13;252.88;;;;;;;;;;4970229;28;20213;-51
2022/07/12 11:05:50;;;;;;;517.67;276.95;;;;;;;;;;4981119;28;20193;-51
2022/07/12 11:08:16;;;;;;;424.05;248.15;;;;;;;;;;4981654;28;20222;-50
2022/07/12 11:10:54;;;;;;;370.52;241.05;;;;;;;;;;4976791;28;20613;-51
2022/07/12 11:13:24;;;;;;;450.00;265.80;;;;;;;;;;4979957;28;20223;-51
2022/07/12 11:16:00;;;;;;;406.67;250.45;;;;;;;;;;4985485;28;20219;-51
2022/07/12 11:18:36;;;;;;;452.27;272.92;;;;;;;;;;4985318;28;20209;-51
2022/07/12 11:21:02;;;;;;;509.13;303.05;;;;;;;;;;4986188;28;20208;-51
2022/07/12 11:23:29;;;;;;;446.77;268.02;;;;;;;;;;4985538;28;21351;-51
2022/07/12 11:25:55;;;;;;;412.42;263.13;;;;;;;;;;4985294;28;20298;-51
2022/07/12 11:28:21;;;;;;;430.55;268.42;;;;;;;;;;4984016;28;20220;-51
2022/07/12 11:30:54;;;;;;;431.48;268.65;;;;;;;;;;4986692;28;20710;-51
2022/07/12 11:33:25;;;;;;;412.55;252.85;;;;;;;;;;4987757;28;20177;-51
2022/07/12 11:35:51;;;;;;;439.67;262.30;;;;;;;;;;4981676;28;20208;-51
2022/07/12 11:38:24;;;;;;;439.55;263.90;;;;;;;;;;4993244;28;20825;-51
2022/07/12 11:40:56;;;;;;;415.27;258.52;;;;;;;;;;4984345;28;20217;-51
2022/07/12 11:43:22;;;;;;;456.52;275.33;;;;;;;;;;4986457;28;20253;-51
2022/07/12 11:45:48;;;;;;;438.30;266.10;;;;;;;;;;4986162;28;20212;-51
2022/07/12 11:48:14;;;;;;;443.15;271.48;;;;;;;;;;4992383;28;20215;-51
2022/07/12 11:50:44;;;;;;;408.50;258.00;;;;;;;;;;4991645;28;20244;-52
2022/07/12 11:53:16;;;;;;;548.50;317.73;;;;;;;;;;4984579;28;20697;-51
2022/07/12 11:55:45;;;;;;;446.83;282.45;;;;;;;;;;4982801;28;20567;-52
2022/07/12 11:58:11;;;;;;;393.77;253.93;;;;;;;;;;4988485;28;20764;-51
2022/07/12 12:00:38;;;;;;;465.13;276.73;;;;;;;;;;4986102;28;20201;-52
2022/07/12 12:03:04;;;;;;;477.15;277.20;;;;;;;;;;4984674;28;20185;-51
2022/07/12 12:05:30;;;;;;;446.98;269.92;;;;;;;;;;4986561;28;20621;-51
2022/07/12 12:07:57;;;;;;;394.30;245.07;;;;;;;;;;4987629;28;20217;-52
2022/07/12 12:10:23;;;;;;;479.17;268.63;;;;;;;;;;4985809;28;20221;-52
2022/07/12 12:12:52;;;;;;;436.80;261.48;;;;;;;;;;4980836;28;20760;-51
2022/07/12 12:15:19;;;;;;;456.65;257.77;;;;;;;;;;4983551;28;20738;-52
2022/07/12 12:17:51;;;;;;;485.52;295.25;;;;;;;;;;4979099;28;20213;-52
2022/07/12 12:20:19;;;;;;;434.08;265.63;;;;;;;;;;4975650;28;20633;-52
2022/07/12 12:22:49;;;;;;;410.88;266.73;;;;;;;;;;4978509;28;20594;-52
2022/07/12 12:25:15;;;;;;;415.42;273.13;;;;;;;;;;4984815;28;20472;-52
2022/07/12 12:27:46;;;;;;;468.40;299.65;;;;;;;;;;4979713;28;20224;-52
2022/07/12 12:30:12;;;;;;;490.17;307.90;;;;;;;;;;4980319;28;20205;-52
2022/07/12 12:32:52;;;;;;;456.77;298.95;;;;;;;;;;4979592;28;20701;-52
2022/07/12 12:35:19;;;;;;;442.27;286.63;;;;;;;;;;4984307;28;20205;-52
2022/07/12 12:37:57;;;;;;;463.92;287.48;;;;;;;;;;4984159;28;20225;-52
2022/07/12 12:40:29;;;;;;;399.23;262.30;;;;;;;;;;4990077;28;20228;-52
2022/07/12 12:43:09;;;;;;;421.40;265.35;;;;;;;;;;4987166;28;20218;-51
2022/07/12 12:45:35;;;;;;;476.40;289.27;;;;;;;;;;4986005;28;20178;-52
2022/07/12 12:48:02;;;;;;;440.55;272.15;;;;;;;;;;4981620;28;20204;-51
2022/07/12 12:50:44;;;;;;;462.95;283.05;;;;;;;;;;4984234;28;20245;-52
2022/07/12 12:53:22;;;;;;;419.83;273.77;;;;;;;;;;4988617;28;20311;-51
2022/07/12 12:55:52;;;;;;;509.98;306.92;;;;;;;;;;4997390;28;20373;-52
2022/07/12 12:58:18;;;;;;;462.73;286.27;;;;;;;;;;4984057;28;20221;-52
2022/07/12 13:00:46;;;;;;;451.80;296.25;;;;;;;;;;4979194;28;20335;-52
2022/07/12 13:03:12;;;;;;;473.60;296.05;;;;;;;;;;4988370;28;20589;-52
2022/07/12 13:05:39;;;;;;;484.00;308.50;;;;;;;;;;4979512;28;20539;-52
2022/07/12 13:08:06;;;;;;;425.83;286.15;;;;;;;;;;4983196;28;20226;-52
2022/07/12 13:10:33;;;;;;;399.00;279.80;;;;;;;;;;4985951;28;20761;-52
2022/07/12 13:12:59;;;;;;;475.70;312.20;;;;;;;;;;4985738;28;20201;-52
2022/07/12 13:15:25;;;;;;;463.85;307.85;;;;;;;;;;4991931;28;20309;-52
2022/07/12 13:17:52;;;;;;;474.83;319.17;;;;;;;;;;4988713;28;20220;-51
2022/07/12 13:20:18;;;;;;;485.35;324.95;;;;;;;;;;4992798;28;20573;-52
2022/07/12 13:22:44;;;;;;;401.85;291.42;;;;;;;;;;4989204;28;20275;-52
2022/07/12 13:25:11;;;;;;;402.15;287.52;;;;;;;;;;4988862;28;20213;-52
2022/07/12 13:27:38;;;;;;;462.15;314.42;;;;;;;;;;4984402;28;20224;-52
2022/07/12 13:30:06;;;;;;;447.25;304.73;;;;;;;;;;4983917;28;20561;-48
2022/07/12 13:32:32;;;;;;;432.55;288.48;;;;;;;;;;4988825;28;20221;-53
2022/07/12 13:34:59;;;;;;;560.88;332.63;;;;;;;;;;4984973;28;20228;-52
2022/07/12 13:37:25;;;;;;;483.50;305.65;;;;;;;;;;4986338;28;20221;-53
2022/07/12 13:42:36;;;;;;;387.63;299.88;;;;;;;;;;4990420;28;20881;-52
2022/07/12 13:45:02;;;;;;;392.95;281.40;;;;;;;;;;4990811;28;20173;-52
2022/07/12 13:47:28;;;;;;;382.73;282.67;;;;;;;;;;4990589;28;20301;-52
2022/07/12 13:49:53;;;;;;;405.77;280.35;;;;;;;;;;4991817;28;20212;-53
2022/07/12 13:52:19;;;;;;;422.73;284.08;;;;;;;;;;4988788;28;20205;-53
2022/07/12 13:54:45;;;;;;;400.00;295.40;;;;;;;;;;4996045;28;20212;-53
2022/07/12 13:57:11;;;;;;;432.42;307.77;;;;;;;;;;4990228;28;20595;-53
2022/07/12 13:59:38;;;;;;;442.63;313.65;;;;;;;;;;4993708;28;20214;-54
2022/07/12 14:02:04;;;;;;;411.48;302.85;;;;;;;;;;4996613;28;20902;-53
2022/07/12 14:04:30;;;;;;;382.52;296.30;;;;;;;;;;4993271;28;20227;-53